Aérodrome :
LOGIN :

S'inscrire | Disclaimer

   EN    FR    IT 

 










Légende :    VFR   VFR Marginal   IFR   IFR Intensif   IFR Très Intensif
Visi : 
Plafond : 
>= 8 km
>= 3000ft
5 à 8 km
1000 à 3000 ft
1500m à 5 km
500 à 1000 ft
800 à 1500m
200 à 500 ft
< 800m
< 200 ft
Symboles :   Orages  Brouillard  Fortes neiges  Fortes précipitations  Vent > 20 kt
SIGMETs :   Divers  Orages  Givrage  Turbulence  Onde Orograph.  Cendres Volcan.






- Altitude de l'aérodrome : 1299 ft


EDTY - Adolf Würth

DERNIER METAR :
  • 291750Z AUTO 09006KT 9999 // FEW081/// 17/06 Q1023

METARs EXPIRÉS :
  • 291720Z AUTO 08010KT 9999 // BKN069/// OVC080/// 17/04 Q1023
  • 291650Z AUTO 07007KT 9999 // SCT088/// 18/03 Q1023
  • 291620Z AUTO 09010KT 9999 // FEW070/// BKN084/// 17/04 Q1023
  • 291550Z AUTO 06008KT 9999 // FEW072/// OVC086/// 18/03 Q1023
  • 291520Z 02006KT 330V070 CAVOK 20/04 Q1023
  • 291450Z 06011KT CAVOK 18/02 Q1024

TAF TAF EDTY
Valide du 29 à 15h jusqu'au 30 à 00h UTC


291400Z 2915/2924 06009KT CAVOK
BECMG 2918/2920 05004KT



MET'MAP, la Météo Aéronautique d'un coup d'oeil ! - Copyright ORBIFLY Décembre 2007 - Disclaimer

ORBIFLY MET'MAP TEAM :

Programmation & Développement : Alexandra Zaïnal
Sur une idée originale de : Baudouin d'Aumeries
Assistance à la programmation : Marc-Olivier Méhu
Soutien technique & logistique : Manuel Goepfert

Contact : metmap@orbifly.com




SOURCES & CREDITS :

   NOAA